sensor_id;sensor_type;location;lat;lon;timestamp;temperature;humidity
20858;DHT22;10589;53.636;10.012;2024-03-23T04:46:36;5.50;99.90
20858;DHT22;10589;53.636;10.012;2024-03-23T04:49:01;5.50;99.90
20858;DHT22;10589;53.636;10.012;2024-03-23T04:51:36;5.60;99.90
20858;DHT22;10589;53.636;10.012;2024-03-23T04:54:05;5.50;99.90
20858;DHT22;10589;53.636;10.012;2024-03-23T04:56:31;5.50;99.90
20858;DHT22;10589;53.636;10.012;2024-03-23T04:58:57;5.60;99.90
20858;DHT22;10589;53.636;10.012;2024-03-23T05:01:27;5.60;99.90
20858;DHT22;10589;53.636;10.012;2024-03-23T05:03:53;5.60;99.90
20858;DHT22;10589;53.636;10.012;2024-03-23T05:06:19;5.60;99.90
20858;DHT22;10589;53.636;10.012;2024-03-23T05:08:45;5.70;99.90
20858;DHT22;10589;53.636;10.012;2024-03-23T05:11:11;5.70;99.90
20858;DHT22;10589;53.636;10.012;2024-03-23T05:13:37;5.70;99.90
20858;DHT22;10589;53.636;10.012;2024-03-23T05:16:02;5.70;99.90
20858;DHT22;10589;53.636;10.012;2024-03-23T05:18:29;5.70;99.90
20858;DHT22;10589;53.636;10.012;2024-03-23T05:20:58;5.70;99.90
20858;DHT22;10589;53.636;10.012;2024-03-23T05:23:25;5.70;99.90
20858;DHT22;10589;53.636;10.012;2024-03-23T05:25:51;5.70;99.90
20858;DHT22;10589;53.636;10.012;2024-03-23T05:28:20;5.70;99.90
20858;DHT22;10589;53.636;10.012;2024-03-23T05:30:56;5.70;99.90
20858;DHT22;10589;53.636;10.012;2024-03-23T05:33:24;5.70;99.90
20858;DHT22;10589;53.636;10.012;2024-03-23T05:35:57;5.80;99.90
20858;DHT22;10589;53.636;10.012;2024-03-23T05:38:23;5.80;99.90
20858;DHT22;10589;53.636;10.012;2024-03-23T05:40:59;5.80;99.90
20858;DHT22;10589;53.636;10.012;2024-03-23T05:43:25;5.80;99.90
20858;DHT22;10589;53.636;10.012;2024-03-23T05:45:58;5.70;99.90
20858;DHT22;10589;53.636;10.012;2024-03-23T05:48:25;5.70;99.90
20858;DHT22;10589;53.636;10.012;2024-03-23T05:50:52;5.80;99.90
20858;DHT22;10589;53.636;10.012;2024-03-23T05:53:18;5.80;99.90
20858;DHT22;10589;53.636;10.012;2024-03-23T05:55:45;5.80;99.90
20858;DHT22;10589;53.636;10.012;2024-03-23T05:58:14;5.80;99.90
20858;DHT22;10589;53.636;10.012;2024-03-23T06:00:40;5.70;99.90
20858;DHT22;10589;53.636;10.012;2024-03-23T06:03:06;5.70;99.90
20858;DHT22;10589;53.636;10.012;2024-03-23T06:05:31;5.70;99.90
20858;DHT22;10589;53.636;10.012;2024-03-23T06:07:57;5.70;99.90
20858;DHT22;10589;53.636;10.012;2024-03-23T06:10:23;5.70;99.90
20858;DHT22;10589;53.636;10.012;2024-03-23T06:12:48;5.80;99.90
20858;DHT22;10589;53.636;10.012;2024-03-23T06:15:15;5.90;99.90
20858;DHT22;10589;53.636;10.012;2024-03-23T06:17:41;5.90;99.90
20858;DHT22;10589;53.636;10.012;2024-03-23T06:20:07;6.00;99.90
20858;DHT22;10589;53.636;10.012;2024-03-23T06:22:32;6.00;99.90
20858;DHT22;10589;53.636;10.012;2024-03-23T06:24:59;6.00;99.90
20858;DHT22;10589;53.636;10.012;2024-03-23T06:27:24;5.90;99.90
20858;DHT22;10589;53.636;10.012;2024-03-23T06:29:50;6.00;99.90
20858;DHT22;10589;53.636;10.012;2024-03-23T06:32:15;6.00;99.90
20858;DHT22;10589;53.636;10.012;2024-03-23T06:34:42;6.00;99.90
20858;DHT22;10589;53.636;10.012;2024-03-23T06:37:07;5.90;99.90
20858;DHT22;10589;53.636;10.012;2024-03-23T06:39:35;6.00;99.90
20858;DHT22;10589;53.636;10.012;2024-03-23T06:42:01;6.00;99.90
20858;DHT22;10589;53.636;10.012;2024-03-23T06:44:26;6.10;99.90
20858;DHT22;10589;53.636;10.012;2024-03-23T06:46:52;6.20;99.90
20858;DHT22;10589;53.636;10.012;2024-03-23T06:49:17;6.10;99.90
20858;DHT22;10589;53.636;10.012;2024-03-23T06:51:45;6.20;99.90
20858;DHT22;10589;53.636;10.012;2024-03-23T06:54:10;6.30;99.90
20858;DHT22;10589;53.636;10.012;2024-03-23T06:56:37;6.30;99.90
20858;DHT22;10589;53.636;10.012;2024-03-23T06:59:03;6.30;99.90
20858;DHT22;10589;53.636;10.012;2024-03-23T07:01:28;6.20;99.90
20858;DHT22;10589;53.636;10.012;2024-03-23T07:03:55;6.20;99.90
20858;DHT22;10589;53.636;10.012;2024-03-23T07:06:21;6.10;99.90
20858;DHT22;10589;53.636;10.012;2024-03-23T07:08:46;6.10;99.90
20858;DHT22;10589;53.636;10.012;2024-03-23T07:11:17;6.00;99.90
20858;DHT22;10589;53.636;10.012;2024-03-23T07:13:43;6.00;99.90
20858;DHT22;10589;53.636;10.012;2024-03-23T07:16:08;6.00;99.90
20858;DHT22;10589;53.636;10.012;2024-03-23T07:18:34;6.10;99.90
20858;DHT22;10589;53.636;10.012;2024-03-23T07:20:59;6.10;99.90
20858;DHT22;10589;53.636;10.012;2024-03-23T07:23:25;6.30;99.90
20858;DHT22;10589;53.636;10.012;2024-03-23T07:26:01;6.30;99.90
20858;DHT22;10589;53.636;10.012;2024-03-23T07:28:27;6.50;99.90
20858;DHT22;10589;53.636;10.012;2024-03-23T07:31:07;6.50;99.90
20858;DHT22;10589;53.636;10.012;2024-03-23T07:33:37;6.70;99.90
20858;DHT22;10589;53.636;10.012;2024-03-23T07:36:04;6.70;99.90
20858;DHT22;10589;53.636;10.012;2024-03-23T07:38:29;6.70;99.90
20858;DHT22;10589;53.636;10.012;2024-03-23T07:41:31;6.80;99.90
20858;DHT22;10589;53.636;10.012;2024-03-23T07:43:56;6.90;99.90
20858;DHT22;10589;53.636;10.012;2024-03-23T07:46:22;6.90;99.90
20858;DHT22;10589;53.636;10.012;2024-03-23T07:48:47;6.90;99.90
20858;DHT22;10589;53.636;10.012;2024-03-23T07:51:20;6.90;99.90
20858;DHT22;10589;53.636;10.012;2024-03-23T07:53:46;6.90;99.90
20858;DHT22;10589;53.636;10.012;2024-03-23T07:56:13;7.00;99.90
20858;DHT22;10589;53.636;10.012;2024-03-23T07:58:40;7.00;99.90
20858;DHT22;10589;53.636;10.012;2024-03-23T08:01:07;7.10;99.90
20858;DHT22;10589;53.636;10.012;2024-03-23T08:03:36;7.10;99.90
20858;DHT22;10589;53.636;10.012;2024-03-23T08:06:18;7.20;99.90
20858;DHT22;10589;53.636;10.012;2024-03-23T08:08:50;7.20;99.90
20858;DHT22;10589;53.636;10.012;2024-03-23T08:11:18;7.30;99.90
20858;DHT22;10589;53.636;10.012;2024-03-23T08:13:45;7.40;99.90
20858;DHT22;10589;53.636;10.012;2024-03-23T08:16:10;7.60;99.90
20858;DHT22;10589;53.636;10.012;2024-03-23T08:18:37;7.60;99.90
20858;DHT22;10589;53.636;10.012;2024-03-23T08:21:05;7.70;99.90
20858;DHT22;10589;53.636;10.012;2024-03-23T08:23:32;7.80;99.90
20858;DHT22;10589;53.636;10.012;2024-03-23T08:26:11;8.00;99.90
20858;DHT22;10589;53.636;10.012;2024-03-23T08:28:36;8.10;99.90
20858;DHT22;10589;53.636;10.012;2024-03-23T08:31:11;8.20;99.90
20858;DHT22;10589;53.636;10.012;2024-03-23T08:33:38;8.40;99.90
20858;DHT22;10589;53.636;10.012;2024-03-23T08:36:09;8.40;99.90
20858;DHT22;10589;53.636;10.012;2024-03-23T08:38:35;8.50;99.90
20858;DHT22;10589;53.636;10.012;2024-03-23T08:41:02;8.70;99.90
20858;DHT22;10589;53.636;10.012;2024-03-23T08:43:28;8.90;99.90
20858;DHT22;10589;53.636;10.012;2024-03-23T08:46:06;9.00;99.90
20858;DHT22;10589;53.636;10.012;2024-03-23T08:48:35;9.10;99.90
20858;DHT22;10589;53.636;10.012;2024-03-23T08:51:08;9.10;99.90
20858;DHT22;10589;53.636;10.012;2024-03-23T08:53:35;9.00;99.90
20858;DHT22;10589;53.636;10.012;2024-03-23T08:56:01;9.10;99.90
20858;DHT22;10589;53.636;10.012;2024-03-23T08:58:28;9.10;99.90
20858;DHT22;10589;53.636;10.012;2024-03-23T09:00:56;9.20;99.90
20858;DHT22;10589;53.636;10.012;2024-03-23T09:03:25;9.30;99.90
20858;DHT22;10589;53.636;10.012;2024-03-23T09:05:54;9.30;99.90
20858;DHT22;10589;53.636;10.012;2024-03-23T09:08:21;9.40;99.90
20858;DHT22;10589;53.636;10.012;2024-03-23T09:10:47;9.70;99.90
20858;DHT22;10589;53.636;10.012;2024-03-23T09:13:13;9.80;99.90
20858;DHT22;10589;53.636;10.012;2024-03-23T09:15:47;10.20;99.90
20858;DHT22;10589;53.636;10.012;2024-03-23T09:18:13;10.30;99.90
20858;DHT22;10589;53.636;10.012;2024-03-23T09:20:38;10.20;99.90
20858;DHT22;10589;53.636;10.012;2024-03-23T09:23:04;10.10;99.90
20858;DHT22;10589;53.636;10.012;2024-03-23T09:25:30;9.90;99.90
20858;DHT22;10589;53.636;10.012;2024-03-23T09:27:55;9.80;99.90
20858;DHT22;10589;53.636;10.012;2024-03-23T09:30:21;9.70;99.90
20858;DHT22;10589;53.636;10.012;2024-03-23T09:32:46;9.50;99.90
20858;DHT22;10589;53.636;10.012;2024-03-23T09:35:12;9.50;99.90
20858;DHT22;10589;53.636;10.012;2024-03-23T09:37:38;9.70;99.90
20858;DHT22;10589;53.636;10.012;2024-03-23T09:40:10;9.70;99.90
20858;DHT22;10589;53.636;10.012;2024-03-23T09:42:40;9.80;99.90
20858;DHT22;10589;53.636;10.012;2024-03-23T09:45:06;9.90;99.90
20858;DHT22;10589;53.636;10.012;2024-03-23T09:47:36;10.10;99.90
20858;DHT22;10589;53.636;10.012;2024-03-23T09:50:03;10.20;99.90
20858;DHT22;10589;53.636;10.012;2024-03-23T09:52:30;10.10;99.90
20858;DHT22;10589;53.636;10.012;2024-03-23T09:54:55;10.10;99.90
20858;DHT22;10589;53.636;10.012;2024-03-23T09:57:21;10.10;99.90
20858;DHT22;10589;53.636;10.012;2024-03-23T09:59:46;10.30;99.90
20858;DHT22;10589;53.636;10.012;2024-03-23T10:02:12;10.30;99.90
20858;DHT22;10589;53.636;10.012;2024-03-23T10:04:42;10.20;99.90
20858;DHT22;10589;53.636;10.012;2024-03-23T10:07:21;10.00;99.90
20858;DHT22;10589;53.636;10.012;2024-03-23T10:09:50;9.60;99.90
20858;DHT22;10589;53.636;10.012;2024-03-23T10:12:18;9.40;99.90
20858;DHT22;10589;53.636;10.012;2024-03-23T10:14:44;9.30;99.90
20858;DHT22;10589;53.636;10.012;2024-03-23T10:17:14;9.40;99.90
20858;DHT22;10589;53.636;10.012;2024-03-23T10:19:41;9.50;99.90
20858;DHT22;10589;53.636;10.012;2024-03-23T10:22:08;9.80;99.90
20858;DHT22;10589;53.636;10.012;2024-03-23T10:24:34;10.00;99.90
20858;DHT22;10589;53.636;10.012;2024-03-23T10:27:00;10.20;99.90
20858;DHT22;10589;53.636;10.012;2024-03-23T10:29:25;10.40;99.90
20858;DHT22;10589;53.636;10.012;2024-03-23T10:31:53;10.70;99.90
20858;DHT22;10589;53.636;10.012;2024-03-23T10:34:25;11.00;99.90
20858;DHT22;10589;53.636;10.012;2024-03-23T10:36:53;11.10;99.90
20858;DHT22;10589;53.636;10.012;2024-03-23T10:39:20;11.10;99.90
20858;DHT22;10589;53.636;10.012;2024-03-23T10:41:49;11.00;99.90
20858;DHT22;10589;53.636;10.012;2024-03-23T10:44:17;10.80;99.90
20858;DHT22;10589;53.636;10.012;2024-03-23T10:46:44;10.70;99.90
20858;DHT22;10589;53.636;10.012;2024-03-23T10:49:10;10.50;99.90
20858;DHT22;10589;53.636;10.012;2024-03-23T10:51:37;10.30;99.90
20858;DHT22;10589;53.636;10.012;2024-03-23T10:54:04;9.90;99.90
20858;DHT22;10589;53.636;10.012;2024-03-23T10:56:36;9.80;99.90
20858;DHT22;10589;53.636;10.012;2024-03-23T10:59:03;9.90;99.90
20858;DHT22;10589;53.636;10.012;2024-03-23T11:01:31;10.20;99.90
20858;DHT22;10589;53.636;10.012;2024-03-23T11:03:56;10.50;99.90
20858;DHT22;10589;53.636;10.012;2024-03-23T11:06:38;10.80;99.90
20858;DHT22;10589;53.636;10.012;2024-03-23T11:09:04;11.10;99.90
20858;DHT22;10589;53.636;10.012;2024-03-23T11:11:35;11.30;99.90
20858;DHT22;10589;53.636;10.012;2024-03-23T11:14:21;11.30;99.90
20858;DHT22;10589;53.636;10.012;2024-03-23T11:17:10;11.00;99.90
20858;DHT22;10589;53.636;10.012;2024-03-23T11:19:38;10.80;99.90
20858;DHT22;10589;53.636;10.012;2024-03-23T11:22:05;10.70;99.90
20858;DHT22;10589;53.636;10.012;2024-03-23T11:24:31;10.60;99.90
20858;DHT22;10589;53.636;10.012;2024-03-23T11:26:57;10.40;99.90
20858;DHT22;10589;53.636;10.012;2024-03-23T11:29:26;10.10;99.90
20858;DHT22;10589;53.636;10.012;2024-03-23T11:31:52;10.00;99.90
20858;DHT22;10589;53.636;10.012;2024-03-23T11:34:19;10.10;99.90
20858;DHT22;10589;53.636;10.012;2024-03-23T11:36:46;10.30;99.90
20858;DHT22;10589;53.636;10.012;2024-03-23T11:39:16;10.30;99.90
20858;DHT22;10589;53.636;10.012;2024-03-23T11:41:52;10.00;99.90
20858;DHT22;10589;53.636;10.012;2024-03-23T11:44:19;9.70;99.90
20858;DHT22;10589;53.636;10.012;2024-03-23T11:46:46;9.80;99.90
20858;DHT22;10589;53.636;10.012;2024-03-23T11:49:25;9.90;99.90
20858;DHT22;10589;53.636;10.012;2024-03-23T11:51:52;10.20;99.90
20858;DHT22;10589;53.636;10.012;2024-03-23T11:54:23;10.30;99.90
20858;DHT22;10589;53.636;10.012;2024-03-23T11:57:04;10.30;99.90
20858;DHT22;10589;53.636;10.012;2024-03-23T11:59:38;10.30;99.90
20858;DHT22;10589;53.636;10.012;2024-03-23T12:02:08;10.00;99.90
20858;DHT22;10589;53.636;10.012;2024-03-23T12:04:34;9.50;99.90
20858;DHT22;10589;53.636;10.012;2024-03-23T12:07:19;8.80;99.90
20858;DHT22;10589;53.636;10.012;2024-03-23T12:10:07;8.10;99.90
20858;DHT22;10589;53.636;10.012;2024-03-23T12:12:32;7.70;99.90
20858;DHT22;10589;53.636;10.012;2024-03-23T12:15:06;7.30;99.90
20858;DHT22;10589;53.636;10.012;2024-03-23T12:17:33;6.90;99.90
20858;DHT22;10589;53.636;10.012;2024-03-23T12:20:00;6.70;99.90
20858;DHT22;10589;53.636;10.012;2024-03-23T12:22:26;6.60;99.90
20858;DHT22;10589;53.636;10.012;2024-03-23T12:24:52;6.60;99.90
20858;DHT22;10589;53.636;10.012;2024-03-23T12:27:18;6.70;99.90
20858;DHT22;10589;53.636;10.012;2024-03-23T12:29:44;6.90;99.90
20858;DHT22;10589;53.636;10.012;2024-03-23T12:32:11;7.30;99.90
20858;DHT22;10589;53.636;10.012;2024-03-23T12:34:37;7.90;99.90
20858;DHT22;10589;53.636;10.012;2024-03-23T12:37:03;8.40;99.90
20858;DHT22;10589;53.636;10.012;2024-03-23T12:39:28;8.60;99.90
20858;DHT22;10589;53.636;10.012;2024-03-23T12:41:54;8.50;99.90
20858;DHT22;10589;53.636;10.012;2024-03-23T12:44:20;8.30;99.90
20858;DHT22;10589;53.636;10.012;2024-03-23T12:46:46;8.10;99.90
20858;DHT22;10589;53.636;10.012;2024-03-23T12:49:12;7.80;99.90
20858;DHT22;10589;53.636;10.012;2024-03-23T12:51:39;7.40;99.90
20858;DHT22;10589;53.636;10.012;2024-03-23T12:54:05;7.10;99.90
20858;DHT22;10589;53.636;10.012;2024-03-23T12:56:30;6.80;99.90
20858;DHT22;10589;53.636;10.012;2024-03-23T12:58:56;6.60;99.90
20858;DHT22;10589;53.636;10.012;2024-03-23T13:01:26;6.50;99.90
20858;DHT22;10589;53.636;10.012;2024-03-23T13:03:51;6.50;99.90
20858;DHT22;10589;53.636;10.012;2024-03-23T13:06:18;6.60;99.90
20858;DHT22;10589;53.636;10.012;2024-03-23T13:08:47;6.70;99.90
20858;DHT22;10589;53.636;10.012;2024-03-23T13:11:13;6.80;99.90
20858;DHT22;10589;53.636;10.012;2024-03-23T13:13:40;7.40;99.90
20858;DHT22;10589;53.636;10.012;2024-03-23T13:16:07;7.80;99.90
20858;DHT22;10589;53.636;10.012;2024-03-23T13:18:32;7.70;99.90
20858;DHT22;10589;53.636;10.012;2024-03-23T13:20:58;7.80;99.90
20858;DHT22;10589;53.636;10.012;2024-03-23T13:23:24;7.90;99.90
20858;DHT22;10589;53.636;10.012;2024-03-23T13:25:55;8.10;99.90
20858;DHT22;10589;53.636;10.012;2024-03-23T13:28:22;8.70;99.90
20858;DHT22;10589;53.636;10.012;2024-03-23T13:30:55;8.70;99.90
20858;DHT22;10589;53.636;10.012;2024-03-23T13:33:21;8.60;99.90
20858;DHT22;10589;53.636;10.012;2024-03-23T13:35:53;8.50;99.90
20858;DHT22;10589;53.636;10.012;2024-03-23T13:38:20;8.40;99.90
20858;DHT22;10589;53.636;10.012;2024-03-23T13:40:54;8.40;99.90
20858;DHT22;10589;53.636;10.012;2024-03-23T13:43:20;8.40;99.90
20858;DHT22;10589;53.636;10.012;2024-03-23T13:45:52;8.30;99.90
20858;DHT22;10589;53.636;10.012;2024-03-23T13:48:20;8.30;99.90
20858;DHT22;10589;53.636;10.012;2024-03-23T13:50:45;8.20;99.90
20858;DHT22;10589;53.636;10.012;2024-03-23T13:53:14;8.00;99.90
20858;DHT22;10589;53.636;10.012;2024-03-23T13:55:49;8.70;99.90
20858;DHT22;10589;53.636;10.012;2024-03-23T13:58:15;9.60;99.90
20858;DHT22;10589;53.636;10.012;2024-03-23T14:00:41;10.40;99.90
20858;DHT22;10589;53.636;10.012;2024-03-23T14:03:11;11.20;99.90
20858;DHT22;10589;53.636;10.012;2024-03-23T14:05:37;11.50;99.90
20858;DHT22;10589;53.636;10.012;2024-03-23T14:08:12;12.10;99.90
20858;DHT22;10589;53.636;10.012;2024-03-23T14:10:41;12.10;99.90
20858;DHT22;10589;53.636;10.012;2024-03-23T14:13:07;12.30;99.90
20858;DHT22;10589;53.636;10.012;2024-03-23T14:15:33;12.10;99.90
20858;DHT22;10589;53.636;10.012;2024-03-23T14:17:59;12.20;99.90
20858;DHT22;10589;53.636;10.012;2024-03-23T14:20:25;12.20;99.90
20858;DHT22;10589;53.636;10.012;2024-03-23T14:22:51;12.50;99.90
20858;DHT22;10589;53.636;10.012;2024-03-23T14:25:17;12.10;99.90
20858;DHT22;10589;53.636;10.012;2024-03-23T14:27:46;11.50;99.90
20858;DHT22;10589;53.636;10.012;2024-03-23T14:30:12;10.70;99.90
20858;DHT22;10589;53.636;10.012;2024-03-23T14:32:39;10.30;99.90
20858;DHT22;10589;53.636;10.012;2024-03-23T14:35:05;11.10;99.90
20858;DHT22;10589;53.636;10.012;2024-03-23T14:37:32;12.30;99.90
20858;DHT22;10589;53.636;10.012;2024-03-23T14:39:58;12.20;99.90
20858;DHT22;10589;53.636;10.012;2024-03-23T14:42:24;11.50;99.90
20858;DHT22;10589;53.636;10.012;2024-03-23T14:44:50;10.90;99.90
20858;DHT22;10589;53.636;10.012;2024-03-23T14:47:19;10.30;99.90
20858;DHT22;10589;53.636;10.012;2024-03-23T14:49:45;9.80;99.90
20858;DHT22;10589;53.636;10.012;2024-03-23T14:52:18;9.60;99.90
20858;DHT22;10589;53.636;10.012;2024-03-23T14:54:44;9.40;99.90
20858;DHT22;10589;53.636;10.012;2024-03-23T14:57:10;9.20;99.90
20858;DHT22;10589;53.636;10.012;2024-03-23T14:59:36;8.90;99.90
20858;DHT22;10589;53.636;10.012;2024-03-23T15:02:09;8.80;99.90
20858;DHT22;10589;53.636;10.012;2024-03-23T15:04:36;8.20;99.90
20858;DHT22;10589;53.636;10.012;2024-03-23T15:07:02;7.60;99.90
20858;DHT22;10589;53.636;10.012;2024-03-23T15:09:28;7.30;99.90
20858;DHT22;10589;53.636;10.012;2024-03-23T15:11:53;7.10;99.90
20858;DHT22;10589;53.636;10.012;2024-03-23T15:14:23;7.00;99.90
20858;DHT22;10589;53.636;10.012;2024-03-23T15:16:49;6.80;99.90
20858;DHT22;10589;53.636;10.012;2024-03-23T15:19:16;7.20;99.90
20858;DHT22;10589;53.636;10.012;2024-03-23T15:21:43;8.10;99.90
20858;DHT22;10589;53.636;10.012;2024-03-23T15:24:09;8.70;99.90
20858;DHT22;10589;53.636;10.012;2024-03-23T15:26:39;9.30;99.90
20858;DHT22;10589;53.636;10.012;2024-03-23T15:29:04;10.10;99.90
20858;DHT22;10589;53.636;10.012;2024-03-23T15:31:38;11.00;99.90
20858;DHT22;10589;53.636;10.012;2024-03-23T15:34:04;11.60;99.90
20858;DHT22;10589;53.636;10.012;2024-03-23T15:36:30;11.90;99.90
20858;DHT22;10589;53.636;10.012;2024-03-23T15:38:55;11.90;99.90
20858;DHT22;10589;53.636;10.012;2024-03-23T15:41:21;12.00;99.90
20858;DHT22;10589;53.636;10.012;2024-03-23T15:43:49;12.10;99.90
20858;DHT22;10589;53.636;10.012;2024-03-23T15:46:14;12.00;99.90
20858;DHT22;10589;53.636;10.012;2024-03-23T15:48:41;11.30;99.90
20858;DHT22;10589;53.636;10.012;2024-03-23T15:51:11;10.30;99.90
20858;DHT22;10589;53.636;10.012;2024-03-23T15:53:37;9.50;99.90
20858;DHT22;10589;53.636;10.012;2024-03-23T15:56:03;9.00;99.90
20858;DHT22;10589;53.636;10.012;2024-03-23T15:58:30;8.70;99.90
20858;DHT22;10589;53.636;10.012;2024-03-23T16:01:07;8.40;99.90
20858;DHT22;10589;53.636;10.012;2024-03-23T16:03:37;8.00;99.90
20858;DHT22;10589;53.636;10.012;2024-03-23T16:06:07;7.70;99.90
20858;DHT22;10589;53.636;10.012;2024-03-23T16:08:33;7.50;99.90
20858;DHT22;10589;53.636;10.012;2024-03-23T16:11:06;7.40;99.90
20858;DHT22;10589;53.636;10.012;2024-03-23T16:13:33;7.30;99.90
20858;DHT22;10589;53.636;10.012;2024-03-23T16:16:01;7.30;99.90
20858;DHT22;10589;53.636;10.012;2024-03-23T16:18:34;7.20;99.90
20858;DHT22;10589;53.636;10.012;2024-03-23T16:21:01;7.10;99.90
20858;DHT22;10589;53.636;10.012;2024-03-23T16:23:28;7.10;99.90
20858;DHT22;10589;53.636;10.012;2024-03-23T16:25:55;6.90;99.90
20858;DHT22;10589;53.636;10.012;2024-03-23T16:28:28;6.90;99.90
20858;DHT22;10589;53.636;10.012;2024-03-23T16:33:24;6.60;99.90
20858;DHT22;10589;53.636;10.012;2024-03-23T16:38:28;6.20;99.90
20858;DHT22;10589;53.636;10.012;2024-03-23T16:43:19;6.00;99.90
20858;DHT22;10589;53.636;10.012;2024-03-23T16:45:55;6.00;99.90
20858;DHT22;10589;53.636;10.012;2024-03-23T16:48:23;6.00;99.90
20858;DHT22;10589;53.636;10.012;2024-03-23T16:50:49;6.00;99.90
20858;DHT22;10589;53.636;10.012;2024-03-23T16:53:14;5.90;99.90
20858;DHT22;10589;53.636;10.012;2024-03-23T16:55:40;5.80;99.90
20858;DHT22;10589;53.636;10.012;2024-03-23T16:58:06;5.70;99.90
20858;DHT22;10589;53.636;10.012;2024-03-23T17:00:31;5.70;99.90
20858;DHT22;10589;53.636;10.012;2024-03-23T17:02:57;5.80;99.90
20858;DHT22;10589;53.636;10.012;2024-03-23T17:05:22;5.90;99.90
20858;DHT22;10589;53.636;10.012;2024-03-23T17:07:48;5.90;99.90
20858;DHT22;10589;53.636;10.012;2024-03-23T17:10:14;5.80;99.90
20858;DHT22;10589;53.636;10.012;2024-03-23T17:12:40;5.80;99.90
20858;DHT22;10589;53.636;10.012;2024-03-23T17:15:05;5.70;99.90
20858;DHT22;10589;53.636;10.012;2024-03-23T17:17:31;5.60;99.90
20858;DHT22;10589;53.636;10.012;2024-03-23T17:20:04;5.60;99.90
20858;DHT22;10589;53.636;10.012;2024-03-23T17:22:30;5.60;99.90
20858;DHT22;10589;53.636;10.012;2024-03-23T17:24:55;5.50;99.90
20858;DHT22;10589;53.636;10.012;2024-03-23T17:27:21;5.50;99.90
20858;DHT22;10589;53.636;10.012;2024-03-23T17:29:47;5.50;99.90
20858;DHT22;10589;53.636;10.012;2024-03-23T17:32:13;5.50;99.90
20858;DHT22;10589;53.636;10.012;2024-03-23T17:34:39;5.40;99.90
20858;DHT22;10589;53.636;10.012;2024-03-23T17:37:05;5.30;99.90
20858;DHT22;10589;53.636;10.012;2024-03-23T17:39:31;5.30;99.90
20858;DHT22;10589;53.636;10.012;2024-03-23T17:41:59;5.40;99.90
20858;DHT22;10589;53.636;10.012;2024-03-23T17:44:25;5.40;99.90
20858;DHT22;10589;53.636;10.012;2024-03-23T17:46:51;5.50;99.90
20858;DHT22;10589;53.636;10.012;2024-03-23T17:49:16;5.50;99.90
20858;DHT22;10589;53.636;10.012;2024-03-23T17:51:42;5.60;99.90
20858;DHT22;10589;53.636;10.012;2024-03-23T17:54:09;5.60;99.90
20858;DHT22;10589;53.636;10.012;2024-03-23T17:56:34;5.60;99.90
20858;DHT22;10589;53.636;10.012;2024-03-23T17:59:00;5.70;99.90
20858;DHT22;10589;53.636;10.012;2024-03-23T18:01:26;5.70;99.90
20858;DHT22;10589;53.636;10.012;2024-03-23T18:03:54;5.70;99.90
20858;DHT22;10589;53.636;10.012;2024-03-23T18:06:21;5.60;99.90
20858;DHT22;10589;53.636;10.012;2024-03-23T18:08:47;5.60;99.90
20858;DHT22;10589;53.636;10.012;2024-03-23T18:11:13;5.70;99.90
20858;DHT22;10589;53.636;10.012;2024-03-23T18:13:38;5.70;99.90
20858;DHT22;10589;53.636;10.012;2024-03-23T18:16:04;5.70;99.90
20858;DHT22;10589;53.636;10.012;2024-03-23T18:18:30;5.60;99.90
20858;DHT22;10589;53.636;10.012;2024-03-23T18:20:56;5.60;99.90
20858;DHT22;10589;53.636;10.012;2024-03-23T18:23:21;5.60;99.90
20858;DHT22;10589;53.636;10.012;2024-03-23T18:25:51;5.50;99.90
20858;DHT22;10589;53.636;10.012;2024-03-23T18:28:17;5.50;99.90
20858;DHT22;10589;53.636;10.012;2024-03-23T18:30:42;5.60;99.90
20858;DHT22;10589;53.636;10.012;2024-03-23T18:33:08;5.50;99.90
20858;DHT22;10589;53.636;10.012;2024-03-23T18:35:33;5.50;99.90
20858;DHT22;10589;53.636;10.012;2024-03-23T18:38:00;5.50;99.90
20858;DHT22;10589;53.636;10.012;2024-03-23T18:40:25;5.50;99.90
20858;DHT22;10589;53.636;10.012;2024-03-23T18:42:51;5.50;99.90
20858;DHT22;10589;53.636;10.012;2024-03-23T18:45:16;5.50;99.90
20858;DHT22;10589;53.636;10.012;2024-03-23T18:47:42;5.40;99.90
20858;DHT22;10589;53.636;10.012;2024-03-23T18:50:07;5.40;99.90
20858;DHT22;10589;53.636;10.012;2024-03-23T18:52:34;5.30;99.90
20858;DHT22;10589;53.636;10.012;2024-03-23T18:55:00;5.30;99.90
20858;DHT22;10589;53.636;10.012;2024-03-23T18:57:26;5.30;99.90
20858;DHT22;10589;53.636;10.012;2024-03-23T18:59:51;5.30;99.90
20858;DHT22;10589;53.636;10.012;2024-03-23T19:02:17;5.30;99.90
20858;DHT22;10589;53.636;10.012;2024-03-23T19:04:42;5.30;99.90
20858;DHT22;10589;53.636;10.012;2024-03-23T19:07:08;5.30;99.90
20858;DHT22;10589;53.636;10.012;2024-03-23T19:09:33;5.30;99.90
20858;DHT22;10589;53.636;10.012;2024-03-23T19:11:59;5.20;99.90
20858;DHT22;10589;53.636;10.012;2024-03-23T19:14:25;5.20;99.90
20858;DHT22;10589;53.636;10.012;2024-03-23T19:16:51;5.30;99.90
20858;DHT22;10589;53.636;10.012;2024-03-23T19:19:19;5.30;99.90
20858;DHT22;10589;53.636;10.012;2024-03-23T19:21:44;5.30;99.90
20858;DHT22;10589;53.636;10.012;2024-03-23T19:24:10;5.30;99.90
20858;DHT22;10589;53.636;10.012;2024-03-23T19:26:35;5.40;99.90
20858;DHT22;10589;53.636;10.012;2024-03-23T19:29:01;5.30;99.90
20858;DHT22;10589;53.636;10.012;2024-03-23T19:31:27;5.30;99.90
20858;DHT22;10589;53.636;10.012;2024-03-23T19:33:53;5.20;99.90
20858;DHT22;10589;53.636;10.012;2024-03-23T19:36:19;5.20;99.90
20858;DHT22;10589;53.636;10.012;2024-03-23T19:38:44;5.20;99.90
20858;DHT22;10589;53.636;10.012;2024-03-23T19:41:10;5.10;99.90
20858;DHT22;10589;53.636;10.012;2024-03-23T19:43:35;5.10;99.90
20858;DHT22;10589;53.636;10.012;2024-03-23T19:46:04;5.20;99.90
20858;DHT22;10589;53.636;10.012;2024-03-23T19:48:30;5.20;99.90
20858;DHT22;10589;53.636;10.012;2024-03-23T19:50:56;5.20;99.90
20858;DHT22;10589;53.636;10.012;2024-03-23T19:53:22;5.30;99.90
20858;DHT22;10589;53.636;10.012;2024-03-23T19:55:57;5.40;99.90
20858;DHT22;10589;53.636;10.012;2024-03-23T19:58:24;5.40;99.90
20858;DHT22;10589;53.636;10.012;2024-03-23T20:00:50;5.20;99.90
20858;DHT22;10589;53.636;10.012;2024-03-23T20:03:15;5.20;99.90
20858;DHT22;10589;53.636;10.012;2024-03-23T20:05:41;5.00;99.90
20858;DHT22;10589;53.636;10.012;2024-03-23T20:08:07;5.00;99.90
20858;DHT22;10589;53.636;10.012;2024-03-23T20:10:33;5.00;99.90
20858;DHT22;10589;53.636;10.012;2024-03-23T20:12:59;4.90;99.90
20858;DHT22;10589;53.636;10.012;2024-03-23T20:15:25;4.90;99.90
20858;DHT22;10589;53.636;10.012;2024-03-23T20:17:51;4.80;99.90
20858;DHT22;10589;53.636;10.012;2024-03-23T20:20:17;4.80;99.90
20858;DHT22;10589;53.636;10.012;2024-03-23T20:22:42;4.70;99.90